Time;durP1;ratioP1;P1;durP2;ratioP2;P2;SDS_P1;SDS_P2;PMS_P1;PMS_P2;Temp;Humidity;BMP_temperature;BMP_pressure;BME280_temperature;BME280_humidity;BME280_pressure;Samples;Min_cycle;Max_cycle;Signal;HPM_P1;HPM_P2
2024/03/12 00:00:32;;;;;;;92.22;47.38;;;8.10;99.90;;;;;;4976868;28;20046;-76
2024/03/12 00:02:58;;;;;;;88.18;45.03;;;8.10;99.90;;;;;;4992319;28;20048;-76
2024/03/12 00:05:24;;;;;;;86.22;45.60;;;8.40;99.90;;;;;;5010459;28;20057;-77
2024/03/12 00:07:51;;;;;;;93.80;45.53;;;8.10;99.90;;;;;;5011007;28;20088;-77
2024/03/12 00:10:21;;;;;;;78.25;43.60;;;8.10;99.90;;;;;;5011002;28;20048;-76
2024/03/12 00:12:53;;;;;;;85.13;45.33;;;8.20;99.90;;;;;;4977480;28;20033;-76
2024/03/12 00:15:23;;;;;;;88.13;44.78;;;8.10;99.90;;;;;;4977744;28;20046;-76
2024/03/12 00:17:56;;;;;;;88.40;45.45;;;8.10;99.90;;;;;;4993233;28;20042;-76
2024/03/12 00:20:33;;;;;;;83.50;43.03;;;8.00;99.90;;;;;;5003077;28;20061;-77
2024/03/12 00:23:00;;;;;;;76.55;44.53;;;8.00;99.90;;;;;;5010529;28;20042;-76
2024/03/12 00:25:28;;;;;;;81.57;45.22;;;8.00;99.90;;;;;;5011129;28;20124;-76
2024/03/12 00:27:57;;;;;;;92.82;46.17;;;8.00;99.90;;;;;;4993654;28;20109;-76
2024/03/12 00:30:25;;;;;;;85.90;44.28;;;8.20;99.90;;;;;;5010093;28;20067;-76
2024/03/12 00:32:57;;;;;;;82.53;45.10;;;8.00;99.90;;;;;;5010903;28;20046;-76
2024/03/12 00:35:32;;;;;;;87.82;43.67;;;8.00;99.90;;;;;;5010886;28;20072;-76
2024/03/12 00:37:58;;;;;;;84.25;43.00;;;8.20;99.90;;;;;;4993305;28;20046;-76
2024/03/12 00:40:36;;;;;;;88.13;44.42;;;8.00;99.90;;;;;;4993245;28;20054;-76
2024/03/12 00:43:03;;;;;;;80.03;41.83;;;8.10;99.90;;;;;;4977035;28;20500;-76
2024/03/12 00:45:36;;;;;;;85.57;46.03;;;8.00;99.90;;;;;;4976269;28;20180;-76
2024/03/12 00:48:03;;;;;;;89.47;46.50;;;8.00;99.90;;;;;;4992691;28;20522;-76
2024/03/12 00:50:29;;;;;;;85.68;43.95;;;8.00;99.90;;;;;;5020736;28;20463;-76
2024/03/12 00:52:57;;;;;;;80.00;42.35;;;8.00;99.90;;;;;;4995715;28;20081;-76
2024/03/12 00:55:23;;;;;;;85.10;45.03;;;8.60;99.90;;;;;;5014687;28;20046;-76
2024/03/12 00:57:50;;;;;;;100.93;47.10;;;8.00;99.90;;;;;;4996091;28;20053;-77
2024/03/12 01:00:17;;;;;;;84.55;43.75;;;8.60;99.90;;;;;;4996597;28;20061;-76
2024/03/12 01:02:49;;;;;;;84.75;43.45;;;8.00;99.90;;;;;;4996067;28;20048;-77
2024/03/12 01:05:20;;;;;;;90.90;45.78;;;8.00;99.90;;;;;;5013309;28;20046;-76
2024/03/12 01:08:03;;;;;;;77.05;42.22;;;8.00;99.90;;;;;;5014171;28;20038;-76
2024/03/12 01:10:33;;;;;;;84.07;42.13;;;8.00;99.90;;;;;;5005589;28;20030;-77
2024/03/12 01:13:05;;;;;;;85.78;43.53;;;8.60;99.90;;;;;;4979812;28;20045;-77
2024/03/12 01:15:31;;;;;;;76.88;42.30;;;8.00;99.90;;;;;;4990719;28;20049;-77
2024/03/12 01:17:57;;;;;;;76.07;41.67;;;7.90;99.90;;;;;;5014595;28;20047;-76
2024/03/12 01:20:24;;;;;;;78.05;42.10;;;8.00;99.90;;;;;;5011417;28;20037;-76
2024/03/12 01:22:51;;;;;;;79.07;41.78;;;8.10;99.90;;;;;;5014055;28;20041;-76
2024/03/12 01:25:21;;;;;;;80.55;42.85;;;7.90;99.90;;;;;;4996237;28;20046;-76
2024/03/12 01:27:47;;;;;;;81.03;42.28;;;7.90;99.90;;;;;;5012874;28;20041;-76
2024/03/12 01:30:20;;;;;;;73.85;41.45;;;8.30;99.90;;;;;;4996564;28;20041;-76
2024/03/12 01:32:51;;;;;;;79.93;43.25;;;7.90;99.90;;;;;;4980306;28;20037;-75
2024/03/12 01:35:20;;;;;;;82.32;41.45;;;7.90;99.90;;;;;;5013856;28;20515;-76
2024/03/12 01:37:49;;;;;;;89.72;44.10;;;7.90;99.90;;;;;;4996528;28;20412;-76
2024/03/12 01:40:19;;;;;;;78.40;42.20;;;7.90;99.90;;;;;;4993136;28;20048;-76
2024/03/12 01:42:52;;;;;;;81.65;41.65;;;7.90;99.90;;;;;;4995259;28;20537;-76
2024/03/12 01:45:24;;;;;;;78.78;41.50;;;8.50;99.90;;;;;;4995996;28;20128;-76
2024/03/12 01:47:50;;;;;;;75.30;40.00;;;7.90;99.90;;;;;;4990631;28;20038;-76
2024/03/12 01:50:18;;;;;;;75.93;41.95;;;8.50;99.90;;;;;;4995500;28;20073;-76
2024/03/12 01:52:44;;;;;;;75.82;42.28;;;7.90;99.90;;;;;;4996892;28;20046;-76
2024/03/12 01:55:11;;;;;;;78.03;41.75;;;8.20;99.90;;;;;;5011633;28;20041;-76
2024/03/12 01:57:41;;;;;;;83.22;42.05;;;7.90;99.90;;;;;;4994311;28;20046;-76
2024/03/12 02:00:13;;;;;;;75.75;41.60;;;8.50;99.90;;;;;;5020433;28;20046;-76
2024/03/12 02:02:40;;;;;;;73.13;40.88;;;7.90;99.90;;;;;;4996156;28;20057;-76
2024/03/12 02:05:06;;;;;;;81.97;42.85;;;7.90;99.90;;;;;;4995392;28;20568;-76
2024/03/12 02:07:34;;;;;;;83.05;43.15;;;7.90;99.90;;;;;;4993286;28;20048;-76
2024/03/12 02:09:59;;;;;;;78.95;43.45;;;7.90;99.90;;;;;;4996772;28;20396;-76
2024/03/12 02:12:25;;;;;;;83.55;44.63;;;8.60;99.90;;;;;;5028053;28;20045;-76
2024/03/12 02:14:51;;;;;;;89.13;45.03;;;7.90;99.90;;;;;;5012927;28;20045;-76
2024/03/12 02:17:17;;;;;;;101.78;46.53;;;8.00;99.90;;;;;;4995071;28;20038;-76
2024/03/12 02:19:42;;;;;;;95.25;46.90;;;8.40;99.90;;;;;;5012654;28;20034;-76
2024/03/12 02:22:08;;;;;;;109.38;47.78;;;8.20;99.90;;;;;;5005059;28;20408;-76
2024/03/12 02:24:34;;;;;;;104.22;47.55;;;7.90;99.90;;;;;;4995034;28;20125;-76
2024/03/12 02:26:59;;;;;;;104.13;48.53;;;7.90;99.90;;;;;;4994879;28;20068;-75
2024/03/12 02:29:25;;;;;;;109.95;48.80;;;7.90;99.90;;;;;;4991972;28;20038;-75
2024/03/12 02:31:52;;;;;;;110.78;47.80;;;7.70;99.90;;;;;;4978454;28;20037;-75
2024/03/12 02:34:19;;;;;;;106.93;47.53;;;8.50;99.90;;;;;;4978368;28;20041;-75
2024/03/12 02:36:46;;;;;;;109.32;47.92;;;8.30;99.90;;;;;;5013029;28;20045;-75
2024/03/12 02:39:14;;;;;;;110.72;49.38;;;8.50;99.90;;;;;;4995412;28;20452;-76
2024/03/12 02:41:40;;;;;;;109.57;48.88;;;7.90;99.90;;;;;;5013368;28;20045;-75
2024/03/12 02:44:06;;;;;;;107.07;47.65;;;7.90;99.90;;;;;;5007721;28;20508;-77
2024/03/12 02:46:31;;;;;;;105.38;48.17;;;8.10;99.90;;;;;;4995931;28;20038;-76
2024/03/12 02:48:57;;;;;;;101.25;48.22;;;7.90;99.90;;;;;;4994221;28;20414;-76
2024/03/12 02:51:23;;;;;;;111.97;49.35;;;7.90;99.90;;;;;;4993749;28;20045;-76
2024/03/12 02:53:50;;;;;;;101.10;49.05;;;8.50;99.90;;;;;;4993668;28;20045;-76
2024/03/12 02:56:16;;;;;;;103.15;48.83;;;8.10;99.90;;;;;;4979322;28;20412;-76
2024/03/12 02:58:43;;;;;;;108.90;48.25;;;8.00;99.90;;;;;;5010708;28;20049;-76
2024/03/12 03:01:10;;;;;;;104.10;49.47;;;7.90;99.90;;;;;;5012239;28;20050;-76
2024/03/12 03:03:36;;;;;;;104.03;47.78;;;7.90;99.90;;;;;;5011502;28;20042;-76
2024/03/12 03:06:02;;;;;;;107.15;48.67;;;7.90;99.90;;;;;;5011789;28;20120;-76
2024/03/12 03:08:30;;;;;;;115.70;49.33;;;7.90;99.90;;;;;;5010559;28;20153;-76
2024/03/12 03:10:56;;;;;;;115.25;48.45;;;7.90;99.90;;;;;;4994079;28;20460;-76
2024/03/12 03:13:22;;;;;;;110.28;47.95;;;7.90;99.90;;;;;;5011172;28;20038;-76
2024/03/12 03:15:47;;;;;;;101.60;47.95;;;7.90;99.90;;;;;;4985385;28;20656;-76
2024/03/12 03:18:13;;;;;;;101.72;48.22;;;8.30;99.90;;;;;;4994257;28;20403;-75
2024/03/12 03:20:39;;;;;;;101.50;47.90;;;8.30;99.90;;;;;;4993943;28;20385;-76
2024/03/12 03:23:05;;;;;;;93.85;45.80;;;8.30;99.90;;;;;;4994669;28;20073;-76
2024/03/12 03:25:30;;;;;;;90.88;46.20;;;7.80;99.90;;;;;;4997506;28;20041;-76
2024/03/12 03:27:56;;;;;;;95.13;47.78;;;8.10;99.90;;;;;;4993154;28;20076;-76
2024/03/12 03:30:25;;;;;;;101.78;48.40;;;8.60;99.90;;;;;;5011362;28;20048;-76
2024/03/12 03:32:50;;;;;;;100.93;48.08;;;7.80;99.90;;;;;;5011612;28;20042;-75
2024/03/12 03:35:17;;;;;;;100.72;48.47;;;7.80;99.90;;;;;;5026577;28;20042;-75
2024/03/12 03:37:43;;;;;;;94.90;46.28;;;7.80;99.90;;;;;;5010544;28;20828;-75
2024/03/12 03:40:10;;;;;;;97.88;46.60;;;7.80;99.90;;;;;;5011898;28;20037;-75
2024/03/12 03:42:39;;;;;;;100.88;48.63;;;7.80;99.90;;;;;;5004046;23;20046;-74
2024/03/12 03:45:05;;;;;;;90.82;45.88;;;7.80;99.90;;;;;;4986510;28;20053;-74
2024/03/12 03:47:34;;;;;;;106.03;49.03;;;7.80;99.90;;;;;;4989303;28;20455;-76
2024/03/12 03:50:05;;;;;;;102.22;48.20;;;7.80;99.90;;;;;;5023416;28;20038;-76
2024/03/12 03:52:30;;;;;;;94.07;46.67;;;7.80;99.90;;;;;;4990506;28;20874;-77
2024/03/12 03:54:56;;;;;;;99.72;49.58;;;7.80;99.90;;;;;;4990504;28;20134;-77
2024/03/12 03:57:22;;;;;;;99.07;46.70;;;7.70;99.90;;;;;;4973150;28;20126;-76
2024/03/12 03:59:49;;;;;;;89.90;46.78;;;7.80;99.90;;;;;;4986397;28;20493;-77
2024/03/12 04:02:16;;;;;;;91.65;46.60;;;7.80;99.90;;;;;;4987492;28;20555;-77
2024/03/12 04:04:46;;;;;;;93.53;46.20;;;7.80;99.90;;;;;;4985603;28;20077;-77
2024/03/12 04:07:12;;;;;;;92.93;47.10;;;7.80;99.90;;;;;;4986108;28;20504;-77
2024/03/12 04:09:38;;;;;;;95.72;46.45;;;7.90;99.90;;;;;;4992455;28;20068;-76
2024/03/12 04:12:04;;;;;;;112.68;47.67;;;7.80;99.90;;;;;;4995795;28;20038;-76
2024/03/12 04:14:30;;;;;;;91.47;47.78;;;7.80;99.90;;;;;;4979273;28;20046;-77
2024/03/12 04:16:56;;;;;;;94.78;46.28;;;7.80;99.90;;;;;;4979068;28;20047;-76
2024/03/12 04:19:21;;;;;;;92.55;47.00;;;7.80;99.90;;;;;;4980839;28;20049;-77
2024/03/12 04:21:48;;;;;;;93.25;46.05;;;7.80;99.90;;;;;;4987332;28;20516;-77
2024/03/12 04:24:13;;;;;;;94.07;47.00;;;7.70;99.90;;;;;;4975777;28;20042;-77
2024/03/12 04:26:39;;;;;;;98.25;45.67;;;7.90;99.90;;;;;;4989591;28;20030;-77
2024/03/12 04:29:05;;;;;;;94.10;43.05;;;8.00;99.90;;;;;;4982484;28;20089;-77
2024/03/12 04:31:32;;;;;;;98.57;45.88;;;7.80;99.90;;;;;;4989200;28;20069;-77
2024/03/12 04:33:58;;;;;;;96.80;45.22;;;7.70;99.90;;;;;;4990215;28;20064;-77
2024/03/12 04:36:24;;;;;;;90.78;43.35;;;7.70;99.90;;;;;;4988894;28;20046;-76
2024/03/12 04:38:50;;;;;;;84.20;45.15;;;7.70;99.90;;;;;;4969276;28;20072;-77
2024/03/12 04:41:17;;;;;;;96.07;46.33;;;7.70;99.90;;;;;;5003150;28;20568;-77
2024/03/12 04:43:43;;;;;;;89.20;44.25;;;7.70;99.90;;;;;;5028093;28;20692;-77
2024/03/12 04:46:09;;;;;;;89.00;46.05;;;7.90;99.90;;;;;;5029855;28;20049;-76
2024/03/12 04:48:36;;;;;;;95.32;45.42;;;7.70;99.90;;;;;;5020525;28;20097;-77
2024/03/12 04:51:02;;;;;;;93.93;44.53;;;7.70;99.90;;;;;;5026490;28;20077;-77
2024/03/12 04:53:28;;;;;;;86.53;44.70;;;7.70;99.90;;;;;;5025063;28;20095;-77
2024/03/12 04:55:54;;;;;;;97.40;45.60;;;7.70;99.90;;;;;;5031801;28;20045;-77
2024/03/12 04:58:19;;;;;;;97.05;45.70;;;7.70;99.90;;;;;;5026543;28;20161;-77
2024/03/12 05:00:45;;;;;;;101.57;46.33;;;7.70;99.90;;;;;;5026641;28;20052;-76
2024/03/12 05:03:11;;;;;;;95.40;46.28;;;7.70;99.90;;;;;;5027616;28;20065;-77
2024/03/12 05:05:36;;;;;;;88.85;44.75;;;7.70;99.90;;;;;;5025213;28;20484;-77
2024/03/12 05:08:02;;;;;;;90.20;44.38;;;7.70;99.90;;;;;;5028713;28;20048;-76
2024/03/12 05:10:28;;;;;;;89.97;45.03;;;7.70;99.90;;;;;;5024590;28;20038;-76
2024/03/12 05:12:54;;;;;;;94.45;45.17;;;7.70;99.90;;;;;;5008744;28;20041;-76
2024/03/12 05:15:21;;;;;;;88.38;45.53;;;7.70;99.90;;;;;;5014659;28;20494;-76
2024/03/12 05:17:48;;;;;;;94.40;45.03;;;7.70;99.90;;;;;;5025339;28;20041;-76
2024/03/12 05:20:17;;;;;;;92.68;45.30;;;7.70;99.90;;;;;;5029757;28;20507;-77
2024/03/12 05:22:46;;;;;;;92.90;46.78;;;7.70;99.90;;;;;;5027619;28;20045;-78
2024/03/12 05:25:38;;;;;;;97.60;46.95;;;7.80;99.90;;;;;;5029388;28;20113;-76
2024/03/12 05:28:06;;;;;;;94.72;46.08;;;7.70;99.90;;;;;;5025575;28;20033;-76
2024/03/12 05:30:31;;;;;;;91.88;45.13;;;7.60;99.90;;;;;;5030663;28;20073;-76
2024/03/12 05:33:03;;;;;;;94.60;45.03;;;7.60;99.90;;;;;;5027068;28;20132;-76
2024/03/12 05:35:31;;;;;;;102.47;46.30;;;7.80;99.90;;;;;;5008708;28;20048;-76
2024/03/12 05:38:03;;;;;;;98.07;45.50;;;7.60;99.90;;;;;;5026236;28;20050;-76
2024/03/12 05:40:56;;;;;;;97.43;45.30;;;7.60;99.90;;;;;;5031493;28;20064;-77
2024/03/12 05:48:52;;;;;;;90.78;44.10;;;7.60;99.90;;;;;;5022213;28;20053;-76
2024/03/12 05:51:21;;;;;;;92.38;44.60;;;7.70;99.90;;;;;;5029528;28;20432;-77
2024/03/12 05:53:48;;;;;;;88.15;44.67;;;7.60;99.90;;;;;;5028940;28;20053;-76
2024/03/12 05:56:13;;;;;;;98.22;44.10;;;7.60;99.90;;;;;;5023390;28;20125;-77
2024/03/12 05:58:39;;;;;;;85.63;44.30;;;7.60;99.90;;;;;;5024426;28;20489;-77
2024/03/12 06:01:05;;;;;;;95.75;44.72;;;7.70;99.90;;;;;;5027804;28;20041;-75
2024/03/12 06:03:36;;;;;;;95.55;45.88;;;7.70;99.90;;;;;;5019060;28;20049;-77
2024/03/12 06:06:04;;;;;;;103.72;45.42;;;7.60;99.90;;;;;;5022990;28;20042;-77
2024/03/12 06:08:30;;;;;;;104.15;46.90;;;7.60;99.90;;;;;;5023274;28;20072;-77
2024/03/12 06:10:56;;;;;;;89.50;43.72;;;7.60;99.90;;;;;;5019632;28;20461;-77
2024/03/12 06:13:22;;;;;;;99.43;46.05;;;7.60;99.90;;;;;;5028334;28;20120;-77
2024/03/12 06:15:51;;;;;;;94.68;44.38;;;7.70;99.90;;;;;;5020808;28;20080;-77
2024/03/12 06:18:22;;;;;;;91.68;45.35;;;7.60;99.90;;;;;;5027230;28;20041;-77
2024/03/12 06:20:49;;;;;;;95.68;45.00;;;7.70;99.90;;;;;;5012018;28;20457;-77
2024/03/12 06:23:18;;;;;;;94.20;45.47;;;7.70;99.90;;;;;;5028765;28;20049;-77
2024/03/12 06:25:44;;;;;;;91.32;44.95;;;7.60;99.90;;;;;;5023556;28;20418;-76
2024/03/12 06:28:11;;;;;;;105.72;46.15;;;7.60;99.90;;;;;;5023479;28;20515;-77
2024/03/12 06:30:38;;;;;;;102.80;47.28;;;7.60;99.90;;;;;;5020619;28;20053;-77
2024/03/12 06:33:06;;;;;;;96.18;44.65;;;7.70;99.90;;;;;;5027335;28;20041;-77
2024/03/12 06:35:33;;;;;;;98.28;46.70;;;7.80;99.90;;;;;;5025104;28;20052;-77
2024/03/12 06:37:58;;;;;;;95.28;45.95;;;7.60;99.90;;;;;;5029164;28;20091;-78
2024/03/12 06:40:25;;;;;;;108.00;47.03;;;7.90;99.90;;;;;;5023685;28;20470;-77
2024/03/12 06:42:55;;;;;;;120.22;49.70;;;7.90;99.90;;;;;;5015782;28;20052;-77
2024/03/12 06:45:21;;;;;;;118.78;48.50;;;7.80;99.90;;;;;;5019021;28;20041;-77
2024/03/12 06:47:49;;;;;;;121.53;49.33;;;7.80;99.90;;;;;;5021882;28;20120;-77
2024/03/12 06:50:14;;;;;;;130.73;49.13;;;7.70;99.90;;;;;;5021241;28;20492;-77
2024/03/12 06:52:41;;;;;;;140.02;52.65;;;7.80;99.90;;;;;;5025641;28;20040;-76
2024/03/12 06:55:15;;;;;;;131.40;50.58;;;7.70;99.90;;;;;;5019198;28;20065;-78
2024/03/12 06:57:47;;;;;;;127.97;52.25;;;7.70;99.90;;;;;;5027361;28;20045;-77
2024/03/12 07:00:26;;;;;;;135.15;51.03;;;7.70;99.90;;;;;;5008106;28;20049;-76
2024/03/12 07:02:53;;;;;;;125.07;50.47;;;7.60;99.90;;;;;;5020306;28;20382;-77
2024/03/12 07:05:20;;;;;;;124.60;49.97;;;7.70;99.90;;;;;;5025201;28;20049;-77
2024/03/12 07:07:46;;;;;;;133.93;50.22;;;7.70;99.90;;;;;;5028070;28;20030;-77
2024/03/12 07:10:14;;;;;;;115.43;48.75;;;7.80;99.90;;;;;;5024928;28;20402;-77
2024/03/12 07:12:42;;;;;;;114.75;46.08;;;7.70;99.90;;;;;;5030230;28;20041;-77
2024/03/12 07:15:11;;;;;;;113.93;43.20;;;7.70;99.90;;;;;;5027406;28;20115;-78
2024/03/12 07:17:36;;;;;;;107.75;45.05;;;7.70;99.90;;;;;;5021541;28;20049;-77
2024/03/12 07:20:10;;;;;;;106.82;42.50;;;7.70;99.90;;;;;;5025919;28;20060;-77
2024/03/12 07:22:37;;;;;;;85.00;37.40;;;7.70;99.90;;;;;;5022510;28;20051;-77
2024/03/12 07:25:05;;;;;;;91.80;38.55;;;7.70;99.90;;;;;;5030809;28;20137;-77
2024/03/12 07:27:31;;;;;;;82.68;36.85;;;7.70;99.90;;;;;;5021990;28;20041;-77
2024/03/12 07:29:58;;;;;;;88.28;36.90;;;7.70;99.90;;;;;;5030451;28;20045;-77
2024/03/12 07:32:24;;;;;;;79.28;35.15;;;7.70;99.90;;;;;;5026784;28;20076;-76
2024/03/12 07:34:49;;;;;;;82.55;34.15;;;7.70;99.90;;;;;;5023506;28;20076;-77
2024/03/12 07:37:17;;;;;;;89.03;33.15;;;7.90;99.90;;;;;;5023764;28;20492;-76
2024/03/12 07:39:43;;;;;;;79.88;30.90;;;7.70;99.90;;;;;;5028208;28;20087;-76
2024/03/12 07:42:18;;;;;;;70.88;30.95;;;7.70;99.90;;;;;;5024708;28;21694;-77
2024/03/12 07:44:47;;;;;;;61.75;29.42;;;7.70;99.90;;;;;;5023642;28;20038;-76
2024/03/12 07:47:16;;;;;;;60.03;26.55;;;7.70;99.90;;;;;;5024232;28;20040;-77
2024/03/12 07:49:42;;;;;;;52.60;24.25;;;7.70;99.90;;;;;;5020575;28;20042;-76
2024/03/12 07:52:11;;;;;;;47.85;23.90;;;7.70;99.90;;;;;;5023271;28;20049;-77
2024/03/12 07:54:38;;;;;;;41.88;21.67;;;7.70;99.90;;;;;;5005498;28;20495;-76
2024/03/12 07:57:04;;;;;;;41.40;20.52;;;7.70;99.90;;;;;;5015792;28;20109;-77
2024/03/12 07:59:31;;;;;;;34.28;17.85;;;7.70;99.90;;;;;;5022817;28;20038;-76
2024/03/12 08:01:57;;;;;;;32.40;17.83;;;7.80;99.90;;;;;;5026983;28;20124;-76
2024/03/12 08:04:25;;;;;;;34.60;17.95;;;7.80;99.90;;;;;;5027643;28;20045;-76
2024/03/12 08:06:51;;;;;;;32.47;18.15;;;7.70;99.90;;;;;;5025150;28;20068;-77
2024/03/12 08:09:18;;;;;;;34.17;18.05;;;7.90;99.90;;;;;;5027774;28;20114;-76
2024/03/12 08:11:48;;;;;;;33.08;18.33;;;7.70;99.90;;;;;;5018997;28;20120;-77
2024/03/12 08:14:14;;;;;;;34.75;18.60;;;7.70;99.90;;;;;;5023480;28;20041;-77
2024/03/12 08:16:43;;;;;;;34.63;18.73;;;7.90;99.90;;;;;;5017496;28;20385;-77
2024/03/12 08:19:11;;;;;;;37.35;19.90;;;7.80;99.90;;;;;;5024120;28;20040;-77
2024/03/12 08:21:37;;;;;;;38.35;19.52;;;7.70;99.90;;;;;;5027375;28;20033;-77
2024/03/12 08:24:03;;;;;;;42.05;20.42;;;7.80;99.90;;;;;;5028826;28;20049;-77
2024/03/12 08:26:32;;;;;;;44.55;21.05;;;7.70;99.90;;;;;;5021076;28;20044;-77
2024/03/12 08:28:58;;;;;;;41.58;20.75;;;7.80;99.90;;;;;;5024128;28;20048;-77
2024/03/12 08:31:29;;;;;;;42.88;20.83;;;7.80;99.90;;;;;;5022183;28;20049;-76
2024/03/12 08:33:55;;;;;;;43.22;20.65;;;7.70;99.90;;;;;;5010311;28;20045;-77
2024/03/12 08:36:21;;;;;;;44.13;21.17;;;7.80;99.90;;;;;;5028907;28;20041;-77
2024/03/12 08:38:47;;;;;;;42.13;20.23;;;7.80;99.90;;;;;;5005052;28;20052;-77
2024/03/12 08:41:13;;;;;;;43.40;20.77;;;7.80;99.90;;;;;;5023612;28;20034;-76
2024/03/12 08:43:39;;;;;;;44.00;20.65;;;7.80;99.90;;;;;;5023457;28;20033;-77
2024/03/12 08:46:08;;;;;;;42.60;21.42;;;7.80;99.90;;;;;;5020311;28;20056;-77
2024/03/12 08:48:34;;;;;;;38.95;20.20;;;7.80;99.90;;;;;;5032379;28;20029;-77
2024/03/12 08:51:02;;;;;;;43.45;20.20;;;7.90;99.90;;;;;;5019401;28;20046;-77
2024/03/12 08:53:33;;;;;;;37.95;19.83;;;8.00;99.90;;;;;;5027117;28;20128;-77
2024/03/12 08:55:59;;;;;;;40.45;19.48;;;7.80;99.90;;;;;;5026522;28;20102;-77
2024/03/12 08:58:26;;;;;;;39.40;19.98;;;7.80;99.90;;;;;;5023895;28;20112;-77
2024/03/12 09:00:52;;;;;;;41.53;19.40;;;7.80;99.90;;;;;;5024244;28;20451;-77
2024/03/12 09:03:19;;;;;;;40.33;19.30;;;7.80;99.90;;;;;;5024309;28;20042;-76
2024/03/12 09:05:45;;;;;;;40.20;19.95;;;7.80;99.90;;;;;;5020169;28;20064;-76
2024/03/12 09:08:11;;;;;;;43.97;21.13;;;7.80;99.90;;;;;;5009936;28;20124;-77
2024/03/12 09:10:37;;;;;;;44.00;21.65;;;8.00;99.90;;;;;;5026484;28;20117;-77
2024/03/12 09:13:03;;;;;;;41.65;20.92;;;7.80;99.90;;;;;;5036246;28;20521;-77
2024/03/12 09:15:31;;;;;;;48.60;22.17;;;7.90;99.90;;;;;;5010172;28;20111;-77
2024/03/12 09:18:04;;;;;;;42.50;20.80;;;7.80;99.90;;;;;;5027843;28;20046;-76
2024/03/12 09:20:30;;;;;;;49.97;23.02;;;8.00;99.90;;;;;;5025988;28;20073;-77
2024/03/12 09:22:56;;;;;;;51.30;22.20;;;8.00;99.90;;;;;;5025727;28;20534;-77
2024/03/12 09:25:23;;;;;;;47.40;21.42;;;7.90;99.90;;;;;;5022972;28;20065;-77
2024/03/12 09:27:50;;;;;;;43.33;20.77;;;7.90;99.90;;;;;;5025537;28;20673;-77
2024/03/12 09:30:16;;;;;;;45.60;21.08;;;7.90;99.90;;;;;;5029995;28;20122;-77
2024/03/12 09:32:44;;;;;;;40.75;20.23;;;7.90;99.90;;;;;;5030790;28;20041;-77
2024/03/12 09:35:09;;;;;;;45.00;21.30;;;8.00;99.90;;;;;;5030315;28;20077;-77
2024/03/12 09:37:36;;;;;;;47.72;22.33;;;8.00;99.90;;;;;;5023531;28;20072;-76
2024/03/12 09:40:05;;;;;;;44.80;20.77;;;7.90;99.90;;;;;;5023835;28;20040;-77
2024/03/12 09:42:32;;;;;;;52.90;22.10;;;7.90;99.90;;;;;;5024355;28;20041;-77
2024/03/12 09:44:59;;;;;;;47.17;20.90;;;7.90;99.90;;;;;;5026661;28;20072;-77
2024/03/12 09:47:25;;;;;;;46.47;20.60;;;7.90;99.90;;;;;;5008221;28;20148;-77
2024/03/12 09:49:51;;;;;;;45.78;21.40;;;8.10;99.90;;;;;;5024249;28;20050;-76
2024/03/12 09:52:17;;;;;;;45.50;21.80;;;7.80;99.90;;;;;;5017417;28;20102;-77
2024/03/12 09:54:43;;;;;;;47.22;21.77;;;8.10;99.90;;;;;;5026492;28;20117;-77
2024/03/12 09:57:10;;;;;;;49.42;20.73;;;7.90;99.90;;;;;;5023781;28;20117;-77
2024/03/12 09:59:36;;;;;;;51.67;22.13;;;7.80;99.90;;;;;;5024095;28;20037;-76
2024/03/12 10:02:03;;;;;;;45.00;21.33;;;7.80;99.90;;;;;;5022340;28;20049;-77
2024/03/12 10:04:29;;;;;;;48.90;22.25;;;8.00;99.90;;;;;;5032973;28;20038;-77
2024/03/12 10:06:55;;;;;;;63.17;24.77;;;7.80;99.90;;;;;;5025498;28;20100;-76
2024/03/12 10:09:27;;;;;;;49.53;22.83;;;8.10;99.90;;;;;;5021414;28;20048;-76
2024/03/12 10:11:54;;;;;;;54.35;23.60;;;7.80;99.90;;;;;;5029172;28;20057;-77
2024/03/12 10:14:22;;;;;;;58.97;23.85;;;7.90;99.90;;;;;;5025271;28;20040;-77
2024/03/12 10:16:49;;;;;;;56.50;23.52;;;7.90;99.90;;;;;;5012813;28;20076;-77
2024/03/12 10:19:15;;;;;;;52.13;22.88;;;7.80;99.90;;;;;;5024504;28;20049;-77
2024/03/12 10:21:42;;;;;;;57.78;23.80;;;7.80;99.90;;;;;;5028084;28;20412;-76
2024/03/12 10:24:10;;;;;;;51.70;22.88;;;7.80;99.90;;;;;;5028052;28;20500;-77
2024/03/12 10:26:36;;;;;;;55.05;24.08;;;7.90;99.90;;;;;;5014956;28;20037;-76
2024/03/12 10:29:09;;;;;;;59.53;24.40;;;7.80;99.90;;;;;;5019430;28;20053;-76
2024/03/12 10:31:39;;;;;;;59.78;24.10;;;7.80;99.90;;;;;;5020021;28;20125;-76
2024/03/12 10:34:17;;;;;;;72.45;25.48;;;7.70;99.90;;;;;;5024280;28;20472;-77
2024/03/12 10:36:44;;;;;;;59.53;23.65;;;7.70;99.90;;;;;;5029325;28;20041;-76
2024/03/12 10:39:14;;;;;;;60.92;23.98;;;7.80;99.90;;;;;;5025610;28;20116;-77
2024/03/12 10:41:43;;;;;;;58.10;23.73;;;7.70;99.90;;;;;;5027046;28;20041;-77
2024/03/12 10:44:13;;;;;;;58.25;23.92;;;7.70;99.90;;;;;;5005198;28;20041;-76
2024/03/12 10:46:47;;;;;;;54.38;22.80;;;7.70;99.90;;;;;;5017372;28;20116;-76
2024/03/12 10:49:16;;;;;;;61.67;22.35;;;7.80;99.90;;;;;;5021808;28;20034;-76
2024/03/12 10:51:43;;;;;;;54.60;23.83;;;7.80;99.90;;;;;;5025329;28;20033;-78
2024/03/12 10:54:13;;;;;;;62.42;23.60;;;7.80;99.90;;;;;;5023298;28;20075;-78
2024/03/12 10:56:41;;;;;;;59.83;24.52;;;7.80;99.90;;;;;;5022856;28;20041;-78
2024/03/12 10:59:08;;;;;;;58.40;23.77;;;8.00;99.90;;;;;;5032469;28;20049;-78
2024/03/12 11:01:35;;;;;;;53.83;23.70;;;8.10;99.90;;;;;;5017713;28;20034;-78
2024/03/12 11:04:01;;;;;;;55.92;22.13;;;8.00;99.90;;;;;;5021956;28;20120;-78
2024/03/12 11:06:29;;;;;;;50.17;21.45;;;8.00;99.90;;;;;;5031316;28;20116;-78
2024/03/12 11:08:56;;;;;;;53.85;21.33;;;8.00;99.90;;;;;;5031506;28;20117;-78
2024/03/12 11:11:23;;;;;;;55.17;22.02;;;8.00;99.90;;;;;;5026933;28;20029;-78
2024/03/12 11:13:53;;;;;;;44.00;20.10;;;8.00;99.90;;;;;;5022375;28;20072;-78
2024/03/12 11:16:20;;;;;;;45.17;19.77;;;8.10;99.90;;;;;;5032387;28;20061;-78
2024/03/12 11:18:48;;;;;;;48.65;21.23;;;8.00;99.90;;;;;;5028153;28;20079;-78
2024/03/12 11:21:23;;;;;;;46.47;20.67;;;8.00;99.90;;;;;;5035019;28;20052;-78
2024/03/12 11:23:49;;;;;;;51.47;20.80;;;8.10;99.90;;;;;;5028922;28;20037;-78
2024/03/12 11:26:15;;;;;;;50.63;21.30;;;8.00;99.90;;;;;;5026686;28;20048;-78
2024/03/12 11:28:49;;;;;;;48.60;20.35;;;8.00;99.90;;;;;;5030029;28;20072;-78
2024/03/12 11:31:14;;;;;;;48.03;21.08;;;8.00;99.90;;;;;;5010896;28;20048;-78
2024/03/12 11:33:45;;;;;;;48.13;22.77;;;7.90;99.90;;;;;;5029713;28;20038;-78
2024/03/12 11:36:21;;;;;;;58.10;21.80;;;8.00;99.90;;;;;;5033845;28;20408;-78
2024/03/12 11:38:49;;;;;;;54.80;23.17;;;8.00;99.90;;;;;;5027057;28;20467;-78
2024/03/12 11:41:16;;;;;;;61.72;24.27;;;8.00;99.90;;;;;;5022069;28;20073;-78
2024/03/12 11:43:42;;;;;;;55.28;23.33;;;8.00;99.90;;;;;;5026132;28;20034;-78
2024/03/12 11:46:51;;;;;;;62.55;24.08;;;8.00;99.90;;;;;;5015827;28;20050;-78
2024/03/12 11:49:32;;;;;;;58.75;24.67;;;8.00;99.90;;;;;;5028691;28;20090;-78
2024/03/12 11:51:58;;;;;;;64.75;24.55;;;8.00;99.90;;;;;;5032403;28;20041;-78
2024/03/12 11:54:47;;;;;;;61.90;24.83;;;7.90;99.90;;;;;;5010900;28;20049;-78
2024/03/12 11:57:27;;;;;;;61.95;24.80;;;8.00;99.90;;;;;;5027374;28;20113;-78
2024/03/12 11:59:54;;;;;;;65.97;24.90;;;7.90;99.90;;;;;;5029993;28;20044;-78
2024/03/12 12:02:20;;;;;;;65.57;25.60;;;7.90;99.90;;;;;;5029844;28;20073;-78
2024/03/12 12:04:51;;;;;;;63.47;24.48;;;7.90;99.90;;;;;;5030611;28;20542;-78
2024/03/12 12:07:27;;;;;;;63.67;25.25;;;8.00;99.90;;;;;;5023941;28;20408;-78
2024/03/12 12:09:53;;;;;;;61.65;24.08;;;8.00;99.90;;;;;;5025692;28;20121;-78
2024/03/12 12:12:19;;;;;;;60.60;23.15;;;8.10;99.90;;;;;;5027182;28;20045;-78
2024/03/12 12:14:47;;;;;;;52.45;22.42;;;8.00;99.90;;;;;;5027074;28;20042;-78
2024/03/12 12:17:21;;;;;;;53.28;22.40;;;8.00;99.90;;;;;;5013368;28;20045;-78
2024/03/12 12:20:18;;;;;;;47.67;21.30;;;8.00;99.90;;;;;;5012204;28;20377;-78
2024/03/12 12:22:45;;;;;;;47.63;20.17;;;8.00;99.90;;;;;;5022352;28;20050;-79
2024/03/12 12:25:11;;;;;;;44.45;18.00;;;8.00;99.90;;;;;;5028023;28;20511;-77
2024/03/12 12:27:38;;;;;;;41.65;18.85;;;8.00;99.90;;;;;;5029841;28;20037;-78
2024/03/12 12:30:11;;;;;;;49.30;18.38;;;8.00;99.90;;;;;;5027682;28;20033;-79
2024/03/12 12:32:37;;;;;;;47.13;19.30;;;8.00;99.90;;;;;;5035907;28;20041;-78
2024/03/12 12:35:10;;;;;;;44.10;18.13;;;8.10;99.90;;;;;;5032167;28;20053;-78
2024/03/12 12:37:37;;;;;;;44.38;18.65;;;8.00;99.90;;;;;;5028933;28;20053;-78
2024/03/12 12:40:07;;;;;;;45.05;17.80;;;8.00;99.90;;;;;;5027132;28;20052;-79
2024/03/12 12:42:34;;;;;;;42.13;17.92;;;8.00;99.90;;;;;;5028616;28;20504;-78
2024/03/12 12:45:05;;;;;;;43.05;17.95;;;8.00;99.90;;;;;;5019964;28;20053;-78